sensor_id;sensor_type;location;lat;lon;timestamp;P1;durP1;ratioP1;P2;durP2;ratioP2
8564;SDS011;4320;51.498;6.556;2023-04-01T00:01:37;5.78;;;2.00;;
8564;SDS011;4320;51.498;6.556;2023-04-01T00:04:03;4.75;;;2.08;;
8564;SDS011;4320;51.498;6.556;2023-04-01T00:06:29;5.75;;;2.03;;
8564;SDS011;4320;51.498;6.556;2023-04-01T00:08:54;5.72;;;3.10;;
8564;SDS011;4320;51.498;6.556;2023-04-01T00:11:20;5.18;;;2.17;;
8564;SDS011;4320;51.498;6.556;2023-04-01T00:13:46;4.40;;;2.13;;
8564;SDS011;4320;51.498;6.556;2023-04-01T00:16:12;3.45;;;1.70;;
8564;SDS011;4320;51.498;6.556;2023-04-01T00:18:38;4.43;;;1.80;;
8564;SDS011;4320;51.498;6.556;2023-04-01T00:21:04;3.80;;;1.73;;
8564;SDS011;4320;51.498;6.556;2023-04-01T00:23:30;3.88;;;2.00;;
8564;SDS011;4320;51.498;6.556;2023-04-01T00:25:56;3.83;;;1.63;;
8564;SDS011;4320;51.498;6.556;2023-04-01T00:28:25;4.20;;;1.52;;
8564;SDS011;4320;51.498;6.556;2023-04-01T00:30:51;2.67;;;1.80;;
8564;SDS011;4320;51.498;6.556;2023-04-01T00:33:16;2.90;;;1.80;;
8564;SDS011;4320;51.498;6.556;2023-04-01T00:35:42;1.70;;;1.60;;
8564;SDS011;4320;51.498;6.556;2023-04-01T00:38:08;3.67;;;1.60;;
8564;SDS011;4320;51.498;6.556;2023-04-01T00:40:37;3.20;;;1.70;;
8564;SDS011;4320;51.498;6.556;2023-04-01T00:43:15;4.28;;;1.33;;
8564;SDS011;4320;51.498;6.556;2023-04-01T00:45:44;2.88;;;1.30;;
8564;SDS011;4320;51.498;6.556;2023-04-01T00:48:46;2.42;;;1.45;;
8564;SDS011;4320;51.498;6.556;2023-04-01T00:51:18;3.42;;;1.80;;
8564;SDS011;4320;51.498;6.556;2023-04-01T00:53:49;3.80;;;1.30;;
8564;SDS011;4320;51.498;6.556;2023-04-01T00:59:10;1.60;;;1.50;;
8564;SDS011;4320;51.498;6.556;2023-04-01T01:01:39;5.10;;;1.70;;
8564;SDS011;4320;51.498;6.556;2023-04-01T01:04:05;3.45;;;1.63;;
8564;SDS011;4320;51.498;6.556;2023-04-01T01:06:50;1.55;;;1.35;;
8564;SDS011;4320;51.498;6.556;2023-04-01T01:12:13;3.50;;;1.70;;
8564;SDS011;4320;51.498;6.556;2023-04-01T01:34:30;2.45;;;1.40;;
8564;SDS011;4320;51.498;6.556;2023-04-01T01:37:09;2.03;;;1.40;;
8564;SDS011;4320;51.498;6.556;2023-04-01T01:39:39;4.07;;;1.60;;
8564;SDS011;4320;51.498;6.556;2023-04-01T01:42:08;2.90;;;1.55;;
8564;SDS011;4320;51.498;6.556;2023-04-01T01:44:36;2.30;;;1.80;;
8564;SDS011;4320;51.498;6.556;2023-04-01T01:47:04;1.75;;;1.38;;
8564;SDS011;4320;51.498;6.556;2023-04-01T01:49:31;2.00;;;1.40;;
8564;SDS011;4320;51.498;6.556;2023-04-01T01:51:58;1.42;;;1.30;;
8564;SDS011;4320;51.498;6.556;2023-04-01T01:54:25;2.90;;;1.40;;
8564;SDS011;4320;51.498;6.556;2023-04-01T01:56:52;2.30;;;1.40;;
8564;SDS011;4320;51.498;6.556;2023-04-01T01:59:26;3.05;;;1.40;;
8564;SDS011;4320;51.498;6.556;2023-04-01T02:01:54;3.40;;;1.67;;
8564;SDS011;4320;51.498;6.556;2023-04-01T02:04:21;4.18;;;1.63;;
8564;SDS011;4320;51.498;6.556;2023-04-01T02:06:53;2.20;;;1.60;;
8564;SDS011;4320;51.498;6.556;2023-04-01T02:09:31;2.10;;;1.20;;
8564;SDS011;4320;51.498;6.556;2023-04-01T02:11:59;2.75;;;1.50;;
8564;SDS011;4320;51.498;6.556;2023-04-01T02:14:46;2.28;;;1.45;;
8564;SDS011;4320;51.498;6.556;2023-04-01T02:17:16;1.65;;;1.30;;
8564;SDS011;4320;51.498;6.556;2023-04-01T02:19:50;1.83;;;1.20;;
8564;SDS011;4320;51.498;6.556;2023-04-01T02:22:20;1.88;;;1.30;;
8564;SDS011;4320;51.498;6.556;2023-04-01T02:24:49;2.08;;;1.30;;
8564;SDS011;4320;51.498;6.556;2023-04-01T02:27:18;2.15;;;1.20;;
8564;SDS011;4320;51.498;6.556;2023-04-01T02:29:44;2.20;;;1.17;;
8564;SDS011;4320;51.498;6.556;2023-04-01T02:32:10;1.73;;;1.17;;
8564;SDS011;4320;51.498;6.556;2023-04-01T02:34:37;1.75;;;1.20;;
8564;SDS011;4320;51.498;6.556;2023-04-01T02:37:03;0.93;;;0.93;;
8564;SDS011;4320;51.498;6.556;2023-04-01T02:39:29;1.13;;;1.02;;
8564;SDS011;4320;51.498;6.556;2023-04-01T02:41:55;1.95;;;0.95;;
8564;SDS011;4320;51.498;6.556;2023-04-01T02:44:21;0.88;;;0.88;;
8564;SDS011;4320;51.498;6.556;2023-04-01T02:46:46;1.38;;;0.90;;
8564;SDS011;4320;51.498;6.556;2023-04-01T02:49:12;1.00;;;0.90;;
8564;SDS011;4320;51.498;6.556;2023-04-01T02:51:38;0.90;;;0.90;;
8564;SDS011;4320;51.498;6.556;2023-04-01T02:54:03;2.45;;;1.05;;
8564;SDS011;4320;51.498;6.556;2023-04-01T02:56:29;0.70;;;0.70;;
8564;SDS011;4320;51.498;6.556;2023-04-01T02:58:55;1.13;;;0.80;;
8564;SDS011;4320;51.498;6.556;2023-04-01T03:01:21;1.10;;;0.90;;
8564;SDS011;4320;51.498;6.556;2023-04-01T03:03:47;0.98;;;0.98;;
8564;SDS011;4320;51.498;6.556;2023-04-01T03:06:14;1.48;;;1.08;;
8564;SDS011;4320;51.498;6.556;2023-04-01T03:08:40;1.13;;;1.08;;
8564;SDS011;4320;51.498;6.556;2023-04-01T03:11:06;1.23;;;0.95;;
8564;SDS011;4320;51.498;6.556;2023-04-01T03:13:32;1.20;;;1.08;;
8564;SDS011;4320;51.498;6.556;2023-04-01T03:15:58;3.08;;;1.23;;
8564;SDS011;4320;51.498;6.556;2023-04-01T03:18:24;1.30;;;1.20;;
8564;SDS011;4320;51.498;6.556;2023-04-01T03:20:49;2.38;;;1.48;;
8564;SDS011;4320;51.498;6.556;2023-04-01T03:23:15;2.30;;;1.40;;
8564;SDS011;4320;51.498;6.556;2023-04-01T03:25:44;2.72;;;1.40;;
8564;SDS011;4320;51.498;6.556;2023-04-01T03:28:10;2.78;;;1.50;;
8564;SDS011;4320;51.498;6.556;2023-04-01T03:30:35;4.00;;;1.73;;
8564;SDS011;4320;51.498;6.556;2023-04-01T03:33:01;2.50;;;2.10;;
8564;SDS011;4320;51.498;6.556;2023-04-01T03:35:27;3.05;;;1.65;;
8564;SDS011;4320;51.498;6.556;2023-04-01T03:37:53;4.32;;;1.70;;
8564;SDS011;4320;51.498;6.556;2023-04-01T03:40:20;2.25;;;1.60;;
8564;SDS011;4320;51.498;6.556;2023-04-01T03:42:46;1.77;;;1.60;;
8564;SDS011;4320;51.498;6.556;2023-04-01T03:45:11;2.33;;;1.70;;
8564;SDS011;4320;51.498;6.556;2023-04-01T03:47:38;2.08;;;1.52;;
8564;SDS011;4320;51.498;6.556;2023-04-01T03:50:04;1.67;;;1.58;;
8564;SDS011;4320;51.498;6.556;2023-04-01T03:52:32;2.35;;;1.80;;
8564;SDS011;4320;51.498;6.556;2023-04-01T03:54:58;3.50;;;2.10;;
8564;SDS011;4320;51.498;6.556;2023-04-01T03:57:23;3.33;;;2.08;;
8564;SDS011;4320;51.498;6.556;2023-04-01T03:59:49;2.10;;;1.77;;
8564;SDS011;4320;51.498;6.556;2023-04-01T04:02:15;2.70;;;1.65;;
8564;SDS011;4320;51.498;6.556;2023-04-01T04:04:41;2.50;;;1.60;;
8564;SDS011;4320;51.498;6.556;2023-04-01T04:07:07;1.63;;;1.50;;
8564;SDS011;4320;51.498;6.556;2023-04-01T04:09:33;3.25;;;1.63;;
8564;SDS011;4320;51.498;6.556;2023-04-01T04:11:58;1.80;;;1.70;;
8564;SDS011;4320;51.498;6.556;2023-04-01T04:14:25;2.83;;;1.63;;
8564;SDS011;4320;51.498;6.556;2023-04-01T04:16:50;1.60;;;1.48;;
8564;SDS011;4320;51.498;6.556;2023-04-01T04:19:16;1.90;;;1.80;;
8564;SDS011;4320;51.498;6.556;2023-04-01T04:21:42;3.30;;;1.90;;
8564;SDS011;4320;51.498;6.556;2023-04-01T04:24:08;2.42;;;2.13;;
8564;SDS011;4320;51.498;6.556;2023-04-01T04:26:34;3.53;;;1.95;;
8564;SDS011;4320;51.498;6.556;2023-04-01T04:29:00;2.38;;;2.17;;
8564;SDS011;4320;51.498;6.556;2023-04-01T04:31:26;4.60;;;1.98;;
8564;SDS011;4320;51.498;6.556;2023-04-01T04:33:52;3.17;;;2.20;;
8564;SDS011;4320;51.498;6.556;2023-04-01T04:36:18;2.40;;;2.20;;
8564;SDS011;4320;51.498;6.556;2023-04-01T04:38:45;2.53;;;2.33;;
8564;SDS011;4320;51.498;6.556;2023-04-01T04:41:14;2.35;;;2.15;;
8564;SDS011;4320;51.498;6.556;2023-04-01T04:43:48;2.97;;;2.70;;
8564;SDS011;4320;51.498;6.556;2023-04-01T04:46:15;4.10;;;2.80;;
8564;SDS011;4320;51.498;6.556;2023-04-01T04:48:41;3.20;;;2.90;;
8564;SDS011;4320;51.498;6.556;2023-04-01T04:51:11;3.42;;;2.42;;
8564;SDS011;4320;51.498;6.556;2023-04-01T04:53:42;5.20;;;2.80;;
8564;SDS011;4320;51.498;6.556;2023-04-01T04:56:08;3.38;;;2.80;;
8564;SDS011;4320;51.498;6.556;2023-04-01T04:58:34;4.07;;;3.00;;
8564;SDS011;4320;51.498;6.556;2023-04-01T05:01:05;4.30;;;2.60;;
8564;SDS011;4320;51.498;6.556;2023-04-01T05:03:32;4.38;;;2.92;;
8564;SDS011;4320;51.498;6.556;2023-04-01T05:05:57;4.63;;;3.08;;
8564;SDS011;4320;51.498;6.556;2023-04-01T05:08:23;4.15;;;3.30;;
8564;SDS011;4320;51.498;6.556;2023-04-01T05:10:48;3.88;;;3.25;;
8564;SDS011;4320;51.498;6.556;2023-04-01T05:13:14;3.28;;;2.97;;
8564;SDS011;4320;51.498;6.556;2023-04-01T05:15:40;4.30;;;3.58;;
8564;SDS011;4320;51.498;6.556;2023-04-01T05:18:05;3.80;;;3.42;;
8564;SDS011;4320;51.498;6.556;2023-04-01T05:20:31;3.88;;;3.47;;
8564;SDS011;4320;51.498;6.556;2023-04-01T05:22:57;4.18;;;3.58;;
8564;SDS011;4320;51.498;6.556;2023-04-01T05:25:23;4.85;;;3.28;;
8564;SDS011;4320;51.498;6.556;2023-04-01T05:27:50;6.13;;;3.45;;
8564;SDS011;4320;51.498;6.556;2023-04-01T05:30:15;5.43;;;4.10;;
8564;SDS011;4320;51.498;6.556;2023-04-01T05:32:41;5.15;;;4.25;;
8564;SDS011;4320;51.498;6.556;2023-04-01T05:35:08;4.45;;;3.97;;
8564;SDS011;4320;51.498;6.556;2023-04-01T05:37:34;5.30;;;4.57;;
8564;SDS011;4320;51.498;6.556;2023-04-01T05:40:00;5.85;;;4.45;;
8564;SDS011;4320;51.498;6.556;2023-04-01T05:42:25;5.50;;;4.13;;
8564;SDS011;4320;51.498;6.556;2023-04-01T05:44:51;4.70;;;4.20;;
8564;SDS011;4320;51.498;6.556;2023-04-01T05:47:17;5.85;;;4.57;;
8564;SDS011;4320;51.498;6.556;2023-04-01T05:49:43;5.75;;;4.60;;
8564;SDS011;4320;51.498;6.556;2023-04-01T05:52:08;5.40;;;4.82;;
8564;SDS011;4320;51.498;6.556;2023-04-01T05:54:34;5.93;;;4.75;;
8564;SDS011;4320;51.498;6.556;2023-04-01T05:57:00;6.38;;;4.75;;
8564;SDS011;4320;51.498;6.556;2023-04-01T05:59:25;6.40;;;5.25;;
8564;SDS011;4320;51.498;6.556;2023-04-01T06:01:51;6.38;;;4.95;;
8564;SDS011;4320;51.498;6.556;2023-04-01T06:04:17;5.45;;;4.95;;
8564;SDS011;4320;51.498;6.556;2023-04-01T06:06:43;5.20;;;4.68;;
8564;SDS011;4320;51.498;6.556;2023-04-01T06:09:13;5.85;;;4.93;;
8564;SDS011;4320;51.498;6.556;2023-04-01T06:28:37;5.90;;;5.13;;
8564;SDS011;4320;51.498;6.556;2023-04-01T06:34:05;6.53;;;5.43;;
8564;SDS011;4320;51.498;6.556;2023-04-01T06:36:59;6.22;;;5.30;;
8564;SDS011;4320;51.498;6.556;2023-04-01T06:49:58;6.30;;;5.53;;
8564;SDS011;4320;51.498;6.556;2023-04-01T06:55:17;6.68;;;5.97;;
8564;SDS011;4320;51.498;6.556;2023-04-01T06:57:57;7.95;;;5.95;;
8564;SDS011;4320;51.498;6.556;2023-04-01T07:05:58;6.78;;;5.85;;
8564;SDS011;4320;51.498;6.556;2023-04-01T07:08:28;7.13;;;5.70;;
8564;SDS011;4320;51.498;6.556;2023-04-01T07:10:58;7.38;;;6.20;;
8564;SDS011;4320;51.498;6.556;2023-04-01T07:13:48;6.25;;;4.93;;
8564;SDS011;4320;51.498;6.556;2023-04-01T07:16:25;5.88;;;5.03;;
8564;SDS011;4320;51.498;6.556;2023-04-01T07:21:44;6.47;;;5.03;;
8564;SDS011;4320;51.498;6.556;2023-04-01T07:24:14;6.32;;;4.85;;
8564;SDS011;4320;51.498;6.556;2023-04-01T07:26:45;5.78;;;4.90;;
8564;SDS011;4320;51.498;6.556;2023-04-01T07:29:13;7.03;;;5.55;;
8564;SDS011;4320;51.498;6.556;2023-04-01T07:37:32;6.65;;;4.93;;
8564;SDS011;4320;51.498;6.556;2023-04-01T07:40:24;7.07;;;4.85;;
8564;SDS011;4320;51.498;6.556;2023-04-01T07:50:32;7.88;;;5.80;;
8564;SDS011;4320;51.498;6.556;2023-04-01T07:53:22;9.20;;;5.93;;
8564;SDS011;4320;51.498;6.556;2023-04-01T07:59:03;7.65;;;5.28;;
8564;SDS011;4320;51.498;6.556;2023-04-01T08:01:53;6.95;;;4.70;;
8564;SDS011;4320;51.498;6.556;2023-04-01T08:04:50;7.03;;;4.43;;
8564;SDS011;4320;51.498;6.556;2023-04-01T08:10:13;5.72;;;4.45;;
8564;SDS011;4320;51.498;6.556;2023-04-01T08:16:23;6.95;;;4.80;;
8564;SDS011;4320;51.498;6.556;2023-04-01T08:23:33;6.15;;;5.07;;
8564;SDS011;4320;51.498;6.556;2023-04-01T08:26:14;7.35;;;5.63;;
8564;SDS011;4320;51.498;6.556;2023-04-01T08:29:00;6.95;;;5.13;;
8564;SDS011;4320;51.498;6.556;2023-04-01T08:31:50;6.95;;;5.20;;
8564;SDS011;4320;51.498;6.556;2023-04-01T08:34:23;5.50;;;4.65;;
8564;SDS011;4320;51.498;6.556;2023-04-01T08:36:54;7.93;;;5.25;;
8564;SDS011;4320;51.498;6.556;2023-04-01T08:39:34;12.80;;;8.93;;
8564;SDS011;4320;51.498;6.556;2023-04-01T08:44:37;6.55;;;5.13;;
8564;SDS011;4320;51.498;6.556;2023-04-01T08:50:19;6.88;;;5.07;;
8564;SDS011;4320;51.498;6.556;2023-04-01T08:58:59;8.05;;;5.70;;
8564;SDS011;4320;51.498;6.556;2023-04-01T09:20:45;9.10;;;7.15;;
8564;SDS011;4320;51.498;6.556;2023-04-01T09:36:46;9.13;;;6.82;;
8564;SDS011;4320;51.498;6.556;2023-04-01T09:39:50;9.77;;;7.18;;
8564;SDS011;4320;51.498;6.556;2023-04-01T09:44:48;12.10;;;7.45;;
8564;SDS011;4320;51.498;6.556;2023-04-01T09:47:27;12.00;;;7.20;;
8564;SDS011;4320;51.498;6.556;2023-04-01T09:58:16;9.68;;;6.97;;
8564;SDS011;4320;51.498;6.556;2023-04-01T10:15:00;9.43;;;7.07;;
8564;SDS011;4320;51.498;6.556;2023-04-01T10:17:45;7.63;;;6.28;;
8564;SDS011;4320;51.498;6.556;2023-04-01T10:20:31;12.88;;;8.73;;
8564;SDS011;4320;51.498;6.556;2023-04-01T10:23:21;10.65;;;8.35;;
8564;SDS011;4320;51.498;6.556;2023-04-01T10:26:04;11.90;;;9.57;;
8564;SDS011;4320;51.498;6.556;2023-04-01T10:37:23;11.90;;;8.75;;
8564;SDS011;4320;51.498;6.556;2023-04-01T10:42:54;11.00;;;8.25;;
8564;SDS011;4320;51.498;6.556;2023-04-01T11:05:34;14.10;;;9.30;;
8564;SDS011;4320;51.498;6.556;2023-04-01T11:08:19;11.18;;;8.07;;
8564;SDS011;4320;51.498;6.556;2023-04-01T11:19:44;13.82;;;8.95;;
8564;SDS011;4320;51.498;6.556;2023-04-01T11:30:53;18.42;;;10.27;;
8564;SDS011;4320;51.498;6.556;2023-04-01T11:33:42;12.75;;;9.35;;
8564;SDS011;4320;51.498;6.556;2023-04-01T11:39:10;9.68;;;8.20;;
8564;SDS011;4320;51.498;6.556;2023-04-01T11:41:52;13.68;;;9.73;;
8564;SDS011;4320;51.498;6.556;2023-04-01T11:44:25;12.32;;;8.82;;
8564;SDS011;4320;51.498;6.556;2023-04-01T11:47:00;10.02;;;8.00;;
8564;SDS011;4320;51.498;6.556;2023-04-01T11:49:47;11.32;;;8.48;;
8564;SDS011;4320;51.498;6.556;2023-04-01T11:52:51;12.35;;;8.30;;
8564;SDS011;4320;51.498;6.556;2023-04-01T12:10:04;12.05;;;9.50;;
8564;SDS011;4320;51.498;6.556;2023-04-01T12:17:12;14.13;;;10.73;;
8564;SDS011;4320;51.498;6.556;2023-04-01T12:19:51;12.88;;;9.70;;
8564;SDS011;4320;51.498;6.556;2023-04-01T12:22:28;13.27;;;9.90;;
8564;SDS011;4320;51.498;6.556;2023-04-01T12:31:25;13.30;;;9.52;;
8564;SDS011;4320;51.498;6.556;2023-04-01T12:34:49;17.50;;;11.00;;
8564;SDS011;4320;51.498;6.556;2023-04-01T12:42:36;17.35;;;11.30;;
8564;SDS011;4320;51.498;6.556;2023-04-01T12:48:00;17.98;;;10.60;;
8564;SDS011;4320;51.498;6.556;2023-04-01T12:53:15;13.20;;;10.02;;
8564;SDS011;4320;51.498;6.556;2023-04-01T12:55:48;12.85;;;9.05;;
8564;SDS011;4320;51.498;6.556;2023-04-01T13:06:44;17.70;;;11.25;;
8564;SDS011;4320;51.498;6.556;2023-04-01T13:15:31;16.13;;;10.40;;
8564;SDS011;4320;51.498;6.556;2023-04-01T13:23:40;15.25;;;10.35;;
8564;SDS011;4320;51.498;6.556;2023-04-01T13:42:29;18.02;;;11.63;;
8564;SDS011;4320;51.498;6.556;2023-04-01T13:53:35;16.48;;;10.35;;
8564;SDS011;4320;51.498;6.556;2023-04-01T14:07:49;17.65;;;10.35;;
8564;SDS011;4320;51.498;6.556;2023-04-01T14:18:42;16.00;;;11.02;;
8564;SDS011;4320;51.498;6.556;2023-04-01T14:21:19;16.15;;;10.52;;
8564;SDS011;4320;51.498;6.556;2023-04-01T14:33:01;13.02;;;8.70;;
8564;SDS011;4320;51.498;6.556;2023-04-01T14:35:28;11.82;;;9.38;;
8564;SDS011;4320;51.498;6.556;2023-04-01T14:38:10;14.00;;;10.43;;
8564;SDS011;4320;51.498;6.556;2023-04-01T14:41:15;13.75;;;9.93;;
8564;SDS011;4320;51.498;6.556;2023-04-01T14:50:02;11.43;;;9.60;;
8564;SDS011;4320;51.498;6.556;2023-04-01T14:52:58;12.35;;;9.32;;
8564;SDS011;4320;51.498;6.556;2023-04-01T14:55:28;12.48;;;10.25;;
8564;SDS011;4320;51.498;6.556;2023-04-01T14:58:14;12.88;;;10.15;;
8564;SDS011;4320;51.498;6.556;2023-04-01T15:09:16;14.90;;;11.15;;
8564;SDS011;4320;51.498;6.556;2023-04-01T15:12:04;12.38;;;8.88;;
8564;SDS011;4320;51.498;6.556;2023-04-01T15:21:00;11.30;;;8.90;;
8564;SDS011;4320;51.498;6.556;2023-04-01T15:23:45;12.10;;;9.75;;
8564;SDS011;4320;51.498;6.556;2023-04-01T15:31:44;11.80;;;9.13;;
8564;SDS011;4320;51.498;6.556;2023-04-01T15:34:25;11.60;;;9.20;;
8564;SDS011;4320;51.498;6.556;2023-04-01T15:40:02;11.90;;;8.75;;
8564;SDS011;4320;51.498;6.556;2023-04-01T15:42:46;9.85;;;7.95;;
8564;SDS011;4320;51.498;6.556;2023-04-01T15:45:31;9.82;;;8.18;;
8564;SDS011;4320;51.498;6.556;2023-04-01T15:50:42;11.95;;;8.68;;
8564;SDS011;4320;51.498;6.556;2023-04-01T15:53:25;13.27;;;8.27;;
8564;SDS011;4320;51.498;6.556;2023-04-01T16:12:18;7.93;;;6.35;;
8564;SDS011;4320;51.498;6.556;2023-04-01T16:14:55;7.50;;;6.32;;
8564;SDS011;4320;51.498;6.556;2023-04-01T16:17:48;8.02;;;6.38;;
8564;SDS011;4320;51.498;6.556;2023-04-01T16:23:35;8.50;;;6.88;;
8564;SDS011;4320;51.498;6.556;2023-04-01T16:26:04;8.68;;;7.28;;
8564;SDS011;4320;51.498;6.556;2023-04-01T16:28:43;8.15;;;6.80;;
8564;SDS011;4320;51.498;6.556;2023-04-01T16:31:27;10.23;;;7.40;;
8564;SDS011;4320;51.498;6.556;2023-04-01T16:34:08;9.60;;;7.57;;
8564;SDS011;4320;51.498;6.556;2023-04-01T16:36:42;11.32;;;8.25;;
8564;SDS011;4320;51.498;6.556;2023-04-01T16:39:25;12.55;;;8.15;;
8564;SDS011;4320;51.498;6.556;2023-04-01T16:44:31;9.77;;;7.43;;
8564;SDS011;4320;51.498;6.556;2023-04-01T16:47:14;10.90;;;7.88;;
8564;SDS011;4320;51.498;6.556;2023-04-01T16:49:51;11.02;;;8.13;;
8564;SDS011;4320;51.498;6.556;2023-04-01T16:52:35;13.50;;;9.02;;
8564;SDS011;4320;51.498;6.556;2023-04-01T16:58:34;18.13;;;12.38;;
8564;SDS011;4320;51.498;6.556;2023-04-01T17:01:20;13.85;;;10.10;;
8564;SDS011;4320;51.498;6.556;2023-04-01T17:03:52;12.98;;;10.25;;
8564;SDS011;4320;51.498;6.556;2023-04-01T17:06:41;12.55;;;9.30;;
8564;SDS011;4320;51.498;6.556;2023-04-01T17:17:49;14.35;;;10.18;;
8564;SDS011;4320;51.498;6.556;2023-04-01T17:23:30;15.35;;;10.35;;
8564;SDS011;4320;51.498;6.556;2023-04-01T17:28:59;14.88;;;10.60;;
8564;SDS011;4320;51.498;6.556;2023-04-01T17:34:20;16.48;;;11.20;;
8564;SDS011;4320;51.498;6.556;2023-04-01T17:37:00;14.38;;;11.15;;
8564;SDS011;4320;51.498;6.556;2023-04-01T17:39:42;17.05;;;12.60;;
8564;SDS011;4320;51.498;6.556;2023-04-01T17:45:24;16.52;;;11.57;;
8564;SDS011;4320;51.498;6.556;2023-04-01T17:48:03;14.60;;;11.52;;
8564;SDS011;4320;51.498;6.556;2023-04-01T17:50:45;16.80;;;12.57;;
8564;SDS011;4320;51.498;6.556;2023-04-01T17:53:47;17.58;;;13.10;;
8564;SDS011;4320;51.498;6.556;2023-04-01T18:26:51;22.02;;;15.40;;
8564;SDS011;4320;51.498;6.556;2023-04-01T18:29:36;19.40;;;13.75;;
8564;SDS011;4320;51.498;6.556;2023-04-01T18:35:29;18.50;;;13.52;;
8564;SDS011;4320;51.498;6.556;2023-04-01T18:38:13;18.90;;;13.07;;
8564;SDS011;4320;51.498;6.556;2023-04-01T18:40:43;19.25;;;13.30;;
8564;SDS011;4320;51.498;6.556;2023-04-01T18:43:23;14.93;;;11.48;;
8564;SDS011;4320;51.498;6.556;2023-04-01T18:48:42;13.13;;;9.50;;
8564;SDS011;4320;51.498;6.556;2023-04-01T18:51:13;12.63;;;8.77;;
8564;SDS011;4320;51.498;6.556;2023-04-01T18:53:52;13.00;;;8.60;;
8564;SDS011;4320;51.498;6.556;2023-04-01T18:56:26;6.72;;;5.50;;
8564;SDS011;4320;51.498;6.556;2023-04-01T18:59:10;7.40;;;6.00;;
8564;SDS011;4320;51.498;6.556;2023-04-01T19:10:12;5.15;;;4.50;;
8564;SDS011;4320;51.498;6.556;2023-04-01T19:12:48;5.40;;;4.70;;
8564;SDS011;4320;51.498;6.556;2023-04-01T19:15:40;4.93;;;4.28;;
8564;SDS011;4320;51.498;6.556;2023-04-01T19:26:53;4.63;;;4.22;;
8564;SDS011;4320;51.498;6.556;2023-04-01T19:29:23;4.55;;;4.15;;
8564;SDS011;4320;51.498;6.556;2023-04-01T19:35:09;3.72;;;3.42;;
8564;SDS011;4320;51.498;6.556;2023-04-01T19:38:01;4.30;;;3.90;;
8564;SDS011;4320;51.498;6.556;2023-04-01T19:41:15;4.43;;;4.03;;
8564;SDS011;4320;51.498;6.556;2023-04-01T19:51:48;3.67;;;3.38;;
8564;SDS011;4320;51.498;6.556;2023-04-01T20:08:42;3.53;;;3.22;;
8564;SDS011;4320;51.498;6.556;2023-04-01T20:11:20;4.25;;;3.85;;
8564;SDS011;4320;51.498;6.556;2023-04-01T20:22:28;3.13;;;2.90;;
8564;SDS011;4320;51.498;6.556;2023-04-01T20:25:17;3.65;;;3.33;;
8564;SDS011;4320;51.498;6.556;2023-04-01T20:27:57;3.38;;;3.08;;
8564;SDS011;4320;51.498;6.556;2023-04-01T20:41:25;3.75;;;3.35;;
8564;SDS011;4320;51.498;6.556;2023-04-01T20:49:30;3.70;;;3.40;;
8564;SDS011;4320;51.498;6.556;2023-04-01T20:55:03;3.63;;;3.33;;
8564;SDS011;4320;51.498;6.556;2023-04-01T21:09:10;4.28;;;3.50;;
8564;SDS011;4320;51.498;6.556;2023-04-01T21:17:42;3.40;;;3.10;;
8564;SDS011;4320;51.498;6.556;2023-04-01T21:26:03;4.10;;;3.60;;
8564;SDS011;4320;51.498;6.556;2023-04-01T21:28:35;3.72;;;3.42;;
8564;SDS011;4320;51.498;6.556;2023-04-01T21:40:24;3.53;;;3.22;;
8564;SDS011;4320;51.498;6.556;2023-04-01T21:49:06;10.25;;;5.43;;
8564;SDS011;4320;51.498;6.556;2023-04-01T21:55:13;4.60;;;3.95;;
8564;SDS011;4320;51.498;6.556;2023-04-01T22:03:54;4.07;;;3.72;;
8564;SDS011;4320;51.498;6.556;2023-04-01T22:06:30;5.20;;;4.43;;
8564;SDS011;4320;51.498;6.556;2023-04-01T22:09:07;4.80;;;4.32;;
8564;SDS011;4320;51.498;6.556;2023-04-01T22:11:55;5.07;;;4.57;;
8564;SDS011;4320;51.498;6.556;2023-04-01T22:14:41;5.10;;;4.60;;
8564;SDS011;4320;51.498;6.556;2023-04-01T22:17:45;4.93;;;4.43;;
8564;SDS011;4320;51.498;6.556;2023-04-01T22:26:05;5.15;;;4.65;;
8564;SDS011;4320;51.498;6.556;2023-04-01T22:28:55;5.10;;;4.60;;
8564;SDS011;4320;51.498;6.556;2023-04-01T22:31:44;5.22;;;4.70;;
8564;SDS011;4320;51.498;6.556;2023-04-01T22:34:30;5.07;;;4.57;;
8564;SDS011;4320;51.498;6.556;2023-04-01T22:37:31;5.47;;;4.97;;
8564;SDS011;4320;51.498;6.556;2023-04-01T22:42:47;4.88;;;4.40;;
8564;SDS011;4320;51.498;6.556;2023-04-01T22:46:03;4.32;;;3.92;;
8564;SDS011;4320;51.498;6.556;2023-04-01T22:56:33;4.13;;;3.28;;
8564;SDS011;4320;51.498;6.556;2023-04-01T22:59:19;3.25;;;2.95;;
8564;SDS011;4320;51.498;6.556;2023-04-01T23:02:13;3.45;;;3.15;;
8564;SDS011;4320;51.498;6.556;2023-04-01T23:05:02;3.38;;;3.08;;
8564;SDS011;4320;51.498;6.556;2023-04-01T23:10:14;4.00;;;3.63;;
8564;SDS011;4320;51.498;6.556;2023-04-01T23:12:43;3.67;;;3.08;;
8564;SDS011;4320;51.498;6.556;2023-04-01T23:15:11;3.67;;;3.38;;
8564;SDS011;4320;51.498;6.556;2023-04-01T23:17:46;3.75;;;3.40;;
8564;SDS011;4320;51.498;6.556;2023-04-01T23:33:16;3.60;;;3.30;;
8564;SDS011;4320;51.498;6.556;2023-04-01T23:35:54;3.67;;;3.20;;
8564;SDS011;4320;51.498;6.556;2023-04-01T23:38:35;3.90;;;3.50;;
8564;SDS011;4320;51.498;6.556;2023-04-01T23:41:04;5.65;;;4.30;;
8564;SDS011;4320;51.498;6.556;2023-04-01T23:43:32;6.47;;;4.32;;
8564;SDS011;4320;51.498;6.556;2023-04-01T23:46:02;3.80;;;3.42;;
8564;SDS011;4320;51.498;6.556;2023-04-01T23:48:37;4.03;;;3.63;;
8564;SDS011;4320;51.498;6.556;2023-04-01T23:51:39;5.88;;;4.03;;
8564;SDS011;4320;51.498;6.556;2023-04-01T23:56:48;8.85;;;5.18;;
8564;SDS011;4320;51.498;6.556;2023-04-01T23:59:23;4.25;;;3.30;;
